»·PEaware :: N24W KFMN-KABQ

N24W :: KFMN-KABQ

FLIGHT INFORMATION

Flight Status: Arrived
Operator: Privately registered:
United States
More flights under this callsign
Pilot: Mark R. (11809)
Aircraft: CESSNA 550 CITATION 2/S2/BRAVO
(C550)
More flights by this aircraft type
Origin: KFMN Four Corners Regl
United States
Destination: KABQ Albuquerque Intl Sunport
United States
More flights between these airports :: More routes between these airports
Route: CHACO1 CHACO BRMLY LOWBO3
File this flight plan on PilotEdge
Remarks: NO TRAFFIC ON VISUALS
Altitude:
(Current/Filed)
19,000ft
Speed:
(Current/Filed)
346kts
Departed: 08-Jan-21 10:32 AM
Arrived: 08-Jan-21 11:05 AM
Distance/Time
Traveled:
129nm/0:33
Distance/Time
To Go:
Arrived

Flight Plot

Page will automatically refresh every two minutes.

Flight plan parsing failed; only flown route is shown


Map Options




Map Legend


Flown Route
Filed Route
Departure Airport
Arrival Airport
Navaid (VOR, NDB)
Fix

Horizontal Profiles

Position Reports

Time Latitude Longitude Heading Altitude Ground
Speed
08-Jan-21 10:09 36.739464 -108.226082 267 5505ft 0kts
08-Jan-21 10:10 36.739464 -108.226082 267 5505ft 0kts
08-Jan-21 10:11 36.739464 -108.226082 267 5505ft 0kts
08-Jan-21 10:12 36.739464 -108.226082 267 5505ft 0kts
08-Jan-21 10:13 36.739464 -108.226082 267 5505ft 0kts
08-Jan-21 10:14 36.739464 -108.226082 267 5505ft 0kts
08-Jan-21 10:15 36.739464 -108.226082 267 5505ft 0kts
08-Jan-21 10:16 36.739464 -108.226082 267 5505ft 0kts
08-Jan-21 10:17 36.739464 -108.226082 267 5505ft 0kts
08-Jan-21 10:18 36.739464 -108.226082 267 5505ft 0kts
08-Jan-21 10:19 36.739464 -108.226082 267 5505ft 0kts
08-Jan-21 10:20 36.739464 -108.226082 267 5505ft 0kts
08-Jan-21 10:21 36.739464 -108.226082 267 5505ft 0kts
08-Jan-21 10:22 36.739464 -108.226082 267 5505ft 0kts
08-Jan-21 10:23 36.739464 -108.226082 267 5505ft 0kts
08-Jan-21 10:24 36.739464 -108.226082 267 5505ft 0kts
08-Jan-21 10:25 36.739464 -108.226082 267 5505ft 0kts
08-Jan-21 10:26 36.739653 -108.226321 355 5502ft 6kts
08-Jan-21 10:27 36.740687 -108.223986 88 5469ft 12kts
08-Jan-21 10:28 36.740785 -108.219750 87 5442ft 12kts
08-Jan-21 10:29 36.740800 -108.218483 80 5433ft 0kts
08-Jan-21 10:30 36.740855 -108.218111 77 5431ft 10kts
08-Jan-21 10:31 36.741287 -108.232962 267 5646ft 155kts
08-Jan-21 10:32 36.708350 -108.268114 146 8506ft 236kts
08-Jan-21 10:33 36.651710 -108.217696 142 11593ft 264kts
08-Jan-21 10:34 36.587005 -108.197458 209 14881ft 270kts
08-Jan-21 10:35 36.521081 -108.239734 203 17655ft 273kts
08-Jan-21 10:36 36.448302 -108.263981 165 19355ft 295kts
08-Jan-21 10:37 36.371423 -108.209672 144 19371ft 336kts
08-Jan-21 10:38 36.297119 -108.144132 142 19378ft 333kts
08-Jan-21 10:39 36.222387 -108.076593 141 19378ft 332kts
08-Jan-21 10:40 36.147921 -108.009211 141 19378ft 332kts
08-Jan-21 10:41 36.073480 -107.942023 141 19378ft 332kts
08-Jan-21 10:42 35.999502 -107.874501 141 19378ft 332kts
08-Jan-21 10:43 35.925510 -107.806143 141 19378ft 331kts
08-Jan-21 10:44 35.852000 -107.738407 141 19378ft 331kts
08-Jan-21 10:45 35.777955 -107.670721 143 19377ft 331kts
08-Jan-21 10:46 35.703033 -107.605029 142 19377ft 331kts
08-Jan-21 10:47 35.627925 -107.539312 142 19377ft 331kts
08-Jan-21 10:48 35.553124 -107.474025 142 19377ft 331kts
08-Jan-21 10:49 35.483470 -107.413223 142 18511ft 318kts
08-Jan-21 10:50 35.417975 -107.344629 122 16503ft 308kts
08-Jan-21 10:51 35.370615 -107.259622 122 14491ft 298kts
08-Jan-21 10:52 35.328078 -107.177722 121 14007ft 290kts
08-Jan-21 10:53 35.283149 -107.096754 141 11968ft 289kts
08-Jan-21 10:54 35.227533 -107.030224 134 10048ft 281kts
08-Jan-21 10:55 35.173676 -106.969007 135 9077ft 269kts
08-Jan-21 10:56 35.122071 -106.909980 135 7796ft 239kts
08-Jan-21 10:57 35.077428 -106.859156 135 7540ft 214kts
08-Jan-21 10:58 35.034998 -106.810917 135 7541ft 213kts
08-Jan-21 11:00 34.996682 -106.761362 124 7522ft 204kts
08-Jan-21 11:01 34.979938 -106.711006 96 7123ft 168kts
08-Jan-21 11:02 34.990933 -106.668794 42 6195ft 134kts
08-Jan-21 11:03 35.011551 -106.643537 45 5654ft 123kts
08-Jan-21 11:04 35.029558 -106.621764 42 5315ft 77kts
08-Jan-21 11:05 35.033867 -106.617918 323 5317ft 0kts
08-Jan-21 11:06 35.035232 -106.617074 44 5318ft 23kts
08-Jan-21 11:07 35.036583 -106.617197 271 5322ft 0kts
08-Jan-21 11:08 35.036583 -106.617197 271 5322ft 0kts

Navigation Log

Ident Type
Flight plan parsing failed, navigation log unavailable